sensor_id;sensor_type;location;lat;lon;timestamp;temperature;humidity
64652;HTU21D;51062;45.120;37.660;2023-03-14T00:02:10;1.39;66.04
64652;HTU21D;51062;45.120;37.660;2023-03-14T00:04:36;1.37;66.13
64652;HTU21D;51062;45.120;37.660;2023-03-14T00:07:03;1.37;66.17
64652;HTU21D;51062;45.120;37.660;2023-03-14T00:09:29;1.37;66.24
64652;HTU21D;51062;45.120;37.660;2023-03-14T00:11:56;1.38;66.46
64652;HTU21D;51062;45.120;37.660;2023-03-14T00:14:23;1.36;66.52
64652;HTU21D;51062;45.120;37.660;2023-03-14T00:16:49;1.36;66.75
64652;HTU21D;51062;45.120;37.660;2023-03-14T00:19:15;1.34;66.92
64652;HTU21D;51062;45.120;37.660;2023-03-14T00:21:41;1.34;67.01
64652;HTU21D;51062;45.120;37.660;2023-03-14T00:24:08;1.34;66.98
64652;HTU21D;51062;45.120;37.660;2023-03-14T00:26:34;1.34;67.04
64652;HTU21D;51062;45.120;37.660;2023-03-14T00:29:00;1.35;67.43
64652;HTU21D;51062;45.120;37.660;2023-03-14T00:31:26;1.37;67.65
64652;HTU21D;51062;45.120;37.660;2023-03-14T00:33:53;1.37;67.65
64652;HTU21D;51062;45.120;37.660;2023-03-14T00:36:20;1.40;67.77
64652;HTU21D;51062;45.120;37.660;2023-03-14T00:38:49;1.42;68.13
64652;HTU21D;51062;45.120;37.660;2023-03-14T00:41:21;1.46;68.01
64652;HTU21D;51062;45.120;37.660;2023-03-14T00:43:49;1.50;68.23
64652;HTU21D;51062;45.120;37.660;2023-03-14T00:46:15;1.51;68.49
64652;HTU21D;51062;45.120;37.660;2023-03-14T00:48:44;1.54;68.48
64652;HTU21D;51062;45.120;37.660;2023-03-14T00:51:11;1.56;68.56
64652;HTU21D;51062;45.120;37.660;2023-03-14T00:53:43;1.56;68.65
64652;HTU21D;51062;45.120;37.660;2023-03-14T00:56:11;1.58;68.63
64652;HTU21D;51062;45.120;37.660;2023-03-14T00:58:37;1.58;68.53
64652;HTU21D;51062;45.120;37.660;2023-03-14T01:01:09;1.60;68.43
64652;HTU21D;51062;45.120;37.660;2023-03-14T01:03:36;1.58;68.41
64652;HTU21D;51062;45.120;37.660;2023-03-14T01:06:15;1.60;68.62
64652;HTU21D;51062;45.120;37.660;2023-03-14T01:08:42;1.61;68.49
64652;HTU21D;51062;45.120;37.660;2023-03-14T01:11:11;1.58;68.36
64652;HTU21D;51062;45.120;37.660;2023-03-14T01:13:38;1.58;68.42
64652;HTU21D;51062;45.120;37.660;2023-03-14T01:16:06;1.60;68.38
64652;HTU21D;51062;45.120;37.660;2023-03-14T01:18:37;1.58;68.39
64652;HTU21D;51062;45.120;37.660;2023-03-14T01:21:10;1.57;68.42
64652;HTU21D;51062;45.120;37.660;2023-03-14T01:23:37;1.56;68.45
64652;HTU21D;51062;45.120;37.660;2023-03-14T01:26:04;1.55;68.37
64652;HTU21D;51062;45.120;37.660;2023-03-14T01:28:30;1.52;68.25
64652;HTU21D;51062;45.120;37.660;2023-03-14T01:30:56;1.51;68.17
64652;HTU21D;51062;45.120;37.660;2023-03-14T01:33:27;1.48;68.14
64652;HTU21D;51062;45.120;37.660;2023-03-14T01:35:53;1.42;68.13
64652;HTU21D;51062;45.120;37.660;2023-03-14T01:38:19;1.39;68.08
64652;HTU21D;51062;45.120;37.660;2023-03-14T01:40:45;1.35;68.04
64652;HTU21D;51062;45.120;37.660;2023-03-14T01:43:15;1.27;68.00
64652;HTU21D;51062;45.120;37.660;2023-03-14T01:51:21;1.11;68.11
64652;HTU21D;51062;45.120;37.660;2023-03-14T01:53:50;1.07;68.25
64652;HTU21D;51062;45.120;37.660;2023-03-14T01:56:18;1.06;68.33
64652;HTU21D;51062;45.120;37.660;2023-03-14T01:58:47;1.04;68.33
64652;HTU21D;51062;45.120;37.660;2023-03-14T02:01:16;1.03;68.33
64652;HTU21D;51062;45.120;37.660;2023-03-14T02:03:51;1.03;68.38
64652;HTU21D;51062;45.120;37.660;2023-03-14T02:06:24;1.03;68.38
64652;HTU21D;51062;45.120;37.660;2023-03-14T02:08:52;1.03;68.35
64652;HTU21D;51062;45.120;37.660;2023-03-14T02:11:26;1.03;68.40
64652;HTU21D;51062;45.120;37.660;2023-03-14T02:14:27;1.03;68.39
64652;HTU21D;51062;45.120;37.660;2023-03-14T02:17:09;1.02;68.28
64652;HTU21D;51062;45.120;37.660;2023-03-14T02:20:15;0.98;68.30
64652;HTU21D;51062;45.120;37.660;2023-03-14T02:22:52;0.95;68.11
64652;HTU21D;51062;45.120;37.660;2023-03-14T02:27:53;0.89;68.08
64652;HTU21D;51062;45.120;37.660;2023-03-14T02:30:21;0.83;68.10
64652;HTU21D;51062;45.120;37.660;2023-03-14T02:32:55;0.81;68.13
64652;HTU21D;51062;45.120;37.660;2023-03-14T02:35:25;0.78;68.27
64652;HTU21D;51062;45.120;37.660;2023-03-14T02:38:00;0.76;68.33
64652;HTU21D;51062;45.120;37.660;2023-03-14T02:40:33;0.76;68.28
64652;HTU21D;51062;45.120;37.660;2023-03-14T02:42:59;0.76;68.28
64652;HTU21D;51062;45.120;37.660;2023-03-14T02:45:35;0.75;68.28
64652;HTU21D;51062;45.120;37.660;2023-03-14T02:48:06;0.76;68.26
64652;HTU21D;51062;45.120;37.660;2023-03-14T02:50:35;0.78;68.40
64652;HTU21D;51062;45.120;37.660;2023-03-14T02:53:02;0.79;68.46
64652;HTU21D;51062;45.120;37.660;2023-03-14T02:55:28;0.83;68.36
64652;HTU21D;51062;45.120;37.660;2023-03-14T02:57:58;0.83;68.29
64652;HTU21D;51062;45.120;37.660;2023-03-14T03:00:24;0.83;68.30
64652;HTU21D;51062;45.120;37.660;2023-03-14T03:02:51;0.84;68.36
64652;HTU21D;51062;45.120;37.660;2023-03-14T03:05:17;0.87;68.36
64652;HTU21D;51062;45.120;37.660;2023-03-14T03:07:43;0.88;68.42
64652;HTU21D;51062;45.120;37.660;2023-03-14T03:10:09;0.88;68.50
64652;HTU21D;51062;45.120;37.660;2023-03-14T03:12:36;0.89;68.65
64652;HTU21D;51062;45.120;37.660;2023-03-14T03:15:04;0.88;68.84
64652;HTU21D;51062;45.120;37.660;2023-03-14T03:17:34;0.88;68.85
64652;HTU21D;51062;45.120;37.660;2023-03-14T03:20:00;0.88;69.15
64652;HTU21D;51062;45.120;37.660;2023-03-14T03:22:26;0.87;69.34
64652;HTU21D;51062;45.120;37.660;2023-03-14T03:24:52;0.86;69.58
64652;HTU21D;51062;45.120;37.660;2023-03-14T03:27:18;0.83;69.81
64652;HTU21D;51062;45.120;37.660;2023-03-14T03:29:44;0.82;70.16
64652;HTU21D;51062;45.120;37.660;2023-03-14T03:32:10;0.81;70.51
64652;HTU21D;51062;45.120;37.660;2023-03-14T03:34:36;0.83;70.61
64652;HTU21D;51062;45.120;37.660;2023-03-14T03:37:02;0.83;70.92
64652;HTU21D;51062;45.120;37.660;2023-03-14T03:39:33;0.84;70.81
64652;HTU21D;51062;45.120;37.660;2023-03-14T03:41:59;0.87;71.33
64652;HTU21D;51062;45.120;37.660;2023-03-14T03:44:25;0.88;71.02
64652;HTU21D;51062;45.120;37.660;2023-03-14T03:46:51;0.88;71.04
64652;HTU21D;51062;45.120;37.660;2023-03-14T03:49:18;0.93;70.86
64652;HTU21D;51062;45.120;37.660;2023-03-14T03:51:44;0.97;70.97
64652;HTU21D;51062;45.120;37.660;2023-03-14T03:54:10;1.01;71.04
64652;HTU21D;51062;45.120;37.660;2023-03-14T03:56:37;1.05;71.07
64652;HTU21D;51062;45.120;37.660;2023-03-14T03:59:04;1.05;71.29
64652;HTU21D;51062;45.120;37.660;2023-03-14T04:01:30;1.06;71.31
64652;HTU21D;51062;45.120;37.660;2023-03-14T04:03:58;1.07;71.61
64652;HTU21D;51062;45.120;37.660;2023-03-14T04:06:25;1.10;71.77
64652;HTU21D;51062;45.120;37.660;2023-03-14T04:08:54;1.17;71.53
64652;HTU21D;51062;45.120;37.660;2023-03-14T04:11:43;1.24;71.44
64652;HTU21D;51062;45.120;37.660;2023-03-14T04:14:21;1.32;71.30
64652;HTU21D;51062;45.120;37.660;2023-03-14T04:16:54;1.38;71.20
64652;HTU21D;51062;45.120;37.660;2023-03-14T04:19:20;1.49;71.32
64652;HTU21D;51062;45.120;37.660;2023-03-14T04:21:47;1.58;71.55
64652;HTU21D;51062;45.120;37.660;2023-03-14T04:24:14;1.71;71.24
64652;HTU21D;51062;45.120;37.660;2023-03-14T04:26:43;1.72;70.82
64652;HTU21D;51062;45.120;37.660;2023-03-14T04:29:10;1.73;71.03
64652;HTU21D;51062;45.120;37.660;2023-03-14T04:31:36;1.70;70.73
64652;HTU21D;51062;45.120;37.660;2023-03-14T04:34:02;1.67;70.79
64652;HTU21D;51062;45.120;37.660;2023-03-14T04:36:34;1.63;70.81
64652;HTU21D;51062;45.120;37.660;2023-03-14T04:39:05;1.72;71.95
64652;HTU21D;51062;45.120;37.660;2023-03-14T04:41:33;2.35;71.15
64652;HTU21D;51062;45.120;37.660;2023-03-14T04:43:59;3.13;70.45
64652;HTU21D;51062;45.120;37.660;2023-03-14T04:46:27;3.83;70.00
64652;HTU21D;51062;45.120;37.660;2023-03-14T04:48:53;4.37;69.53
64652;HTU21D;51062;45.120;37.660;2023-03-14T04:51:19;4.90;69.14
64652;HTU21D;51062;45.120;37.660;2023-03-14T04:53:48;5.34;68.70
64652;HTU21D;51062;45.120;37.660;2023-03-14T04:56:14;5.67;68.39
64652;HTU21D;51062;45.120;37.660;2023-03-14T04:58:42;6.01;68.31
64652;HTU21D;51062;45.120;37.660;2023-03-14T05:01:10;6.30;67.91
64652;HTU21D;51062;45.120;37.660;2023-03-14T05:03:36;6.51;67.56
64652;HTU21D;51062;45.120;37.660;2023-03-14T05:06:17;6.79;67.57
64652;HTU21D;51062;45.120;37.660;2023-03-14T05:08:55;7.17;66.94
64652;HTU21D;51062;45.120;37.660;2023-03-14T05:11:39;7.31;65.97
64652;HTU21D;51062;45.120;37.660;2023-03-14T05:14:25;7.39;66.07
64652;HTU21D;51062;45.120;37.660;2023-03-14T05:16:54;7.54;66.17
64652;HTU21D;51062;45.120;37.660;2023-03-14T05:19:39;7.63;66.17
64652;HTU21D;51062;45.120;37.660;2023-03-14T05:22:28;7.85;66.80
64652;HTU21D;51062;45.120;37.660;2023-03-14T05:25:16;8.39;66.01
64652;HTU21D;51062;45.120;37.660;2023-03-14T05:28:11;8.74;65.11
64652;HTU21D;51062;45.120;37.660;2023-03-14T05:30:57;8.96;64.62
64652;HTU21D;51062;45.120;37.660;2023-03-14T05:33:45;9.27;64.32
64652;HTU21D;51062;45.120;37.660;2023-03-14T05:36:49;9.40;63.59
64652;HTU21D;51062;45.120;37.660;2023-03-14T05:39:38;9.49;63.11
64652;HTU21D;51062;45.120;37.660;2023-03-14T05:42:27;9.33;62.66
64652;HTU21D;51062;45.120;37.660;2023-03-14T05:45:17;9.05;62.57
64652;HTU21D;51062;45.120;37.660;2023-03-14T05:48:21;8.12;62.60
64652;HTU21D;51062;45.120;37.660;2023-03-14T05:51:16;7.25;63.96
64652;HTU21D;51062;45.120;37.660;2023-03-14T05:53:51;6.80;64.52
64652;HTU21D;51062;45.120;37.660;2023-03-14T05:56:52;6.79;65.24
64652;HTU21D;51062;45.120;37.660;2023-03-14T05:59:31;7.15;65.36
64652;HTU21D;51062;45.120;37.660;2023-03-14T06:02:16;7.88;65.35
64652;HTU21D;51062;45.120;37.660;2023-03-14T06:04:55;8.41;64.05
64652;HTU21D;51062;45.120;37.660;2023-03-14T06:07:22;8.16;63.00
64652;HTU21D;51062;45.120;37.660;2023-03-14T06:09:48;7.50;63.08
64652;HTU21D;51062;45.120;37.660;2023-03-14T06:12:17;7.01;63.73
64652;HTU21D;51062;45.120;37.660;2023-03-14T06:14:45;6.60;64.21
64652;HTU21D;51062;45.120;37.660;2023-03-14T06:17:11;6.27;64.90
64652;HTU21D;51062;45.120;37.660;2023-03-14T06:19:57;6.01;0.00
64652;HTU21D;51062;45.120;37.660;2023-03-14T06:22:23;5.84;65.66
64652;HTU21D;51062;45.120;37.660;2023-03-14T06:24:50;5.71;65.95
64652;HTU21D;51062;45.120;37.660;2023-03-14T06:27:17;5.66;66.24
64652;HTU21D;51062;45.120;37.660;2023-03-14T06:29:43;5.71;66.27
64652;HTU21D;51062;45.120;37.660;2023-03-14T06:32:09;5.74;66.13
64652;HTU21D;51062;45.120;37.660;2023-03-14T06:34:37;5.71;66.16
64652;HTU21D;51062;45.120;37.660;2023-03-14T06:37:04;5.65;66.10
64652;HTU21D;51062;45.120;37.660;2023-03-14T06:39:32;5.54;66.20
64652;HTU21D;51062;45.120;37.660;2023-03-14T06:42:09;5.40;66.37
64652;HTU21D;51062;45.120;37.660;2023-03-14T06:44:36;5.31;66.53
64652;HTU21D;51062;45.120;37.660;2023-03-14T06:47:03;5.27;66.70
64652;HTU21D;51062;45.120;37.660;2023-03-14T06:49:30;5.24;66.68
64652;HTU21D;51062;45.120;37.660;2023-03-14T06:51:59;5.21;66.68
64652;HTU21D;51062;45.120;37.660;2023-03-14T06:54:25;5.16;66.71
64652;HTU21D;51062;45.120;37.660;2023-03-14T06:56:51;5.10;66.87
64652;HTU21D;51062;45.120;37.660;2023-03-14T06:59:17;5.05;66.97
64652;HTU21D;51062;45.120;37.660;2023-03-14T07:01:46;5.04;67.14
64652;HTU21D;51062;45.120;37.660;2023-03-14T07:04:14;5.06;67.18
64652;HTU21D;51062;45.120;37.660;2023-03-14T07:06:44;5.06;67.27
64652;HTU21D;51062;45.120;37.660;2023-03-14T07:09:12;5.04;67.30
64652;HTU21D;51062;45.120;37.660;2023-03-14T07:11:43;5.07;67.38
64652;HTU21D;51062;45.120;37.660;2023-03-14T07:14:09;5.11;67.36
64652;HTU21D;51062;45.120;37.660;2023-03-14T07:16:36;5.18;67.42
64652;HTU21D;51062;45.120;37.660;2023-03-14T07:19:02;5.25;67.36
64652;HTU21D;51062;45.120;37.660;2023-03-14T07:21:29;5.30;67.23
64652;HTU21D;51062;45.120;37.660;2023-03-14T07:23:55;5.32;67.26
64652;HTU21D;51062;45.120;37.660;2023-03-14T07:26:21;5.34;67.27
64652;HTU21D;51062;45.120;37.660;2023-03-14T07:28:50;5.38;67.37
64652;HTU21D;51062;45.120;37.660;2023-03-14T07:31:18;5.40;67.39
64652;HTU21D;51062;45.120;37.660;2023-03-14T07:33:45;5.47;67.43
64652;HTU21D;51062;45.120;37.660;2023-03-14T07:36:11;5.47;67.30
64652;HTU21D;51062;45.120;37.660;2023-03-14T07:38:41;5.47;67.35
64652;HTU21D;51062;45.120;37.660;2023-03-14T07:41:19;5.42;67.36
64652;HTU21D;51062;45.120;37.660;2023-03-14T07:44:09;5.42;67.38
64652;HTU21D;51062;45.120;37.660;2023-03-14T07:46:35;5.47;67.47
64652;HTU21D;51062;45.120;37.660;2023-03-14T07:49:01;5.51;67.68
64652;HTU21D;51062;45.120;37.660;2023-03-14T07:51:27;5.52;67.62
64652;HTU21D;51062;45.120;37.660;2023-03-14T07:53:53;5.52;67.68
64652;HTU21D;51062;45.120;37.660;2023-03-14T07:56:19;5.55;67.65
64652;HTU21D;51062;45.120;37.660;2023-03-14T07:58:45;5.54;67.65
64652;HTU21D;51062;45.120;37.660;2023-03-14T08:01:11;5.54;68.07
64652;HTU21D;51062;45.120;37.660;2023-03-14T08:03:37;5.51;68.36
64652;HTU21D;51062;45.120;37.660;2023-03-14T08:06:03;5.52;68.45
64652;HTU21D;51062;45.120;37.660;2023-03-14T08:08:29;5.54;68.46
64652;HTU21D;51062;45.120;37.660;2023-03-14T08:10:55;5.57;68.79
64652;HTU21D;51062;45.120;37.660;2023-03-14T08:13:22;5.61;68.84
64652;HTU21D;51062;45.120;37.660;2023-03-14T08:15:49;5.62;68.94
64652;HTU21D;51062;45.120;37.660;2023-03-14T08:18:16;5.64;69.17
64652;HTU21D;51062;45.120;37.660;2023-03-14T08:20:42;5.68;68.96
64652;HTU21D;51062;45.120;37.660;2023-03-14T08:23:08;5.74;68.91
64652;HTU21D;51062;45.120;37.660;2023-03-14T08:25:34;5.79;68.78
64652;HTU21D;51062;45.120;37.660;2023-03-14T08:28:00;5.82;68.65
64652;HTU21D;51062;45.120;37.660;2023-03-14T08:30:27;5.89;68.49
64652;HTU21D;51062;45.120;37.660;2023-03-14T08:32:52;5.92;68.47
64652;HTU21D;51062;45.120;37.660;2023-03-14T08:35:20;5.94;68.62
64652;HTU21D;51062;45.120;37.660;2023-03-14T08:37:47;5.91;68.72
64652;HTU21D;51062;45.120;37.660;2023-03-14T08:40:13;5.89;68.89
64652;HTU21D;51062;45.120;37.660;2023-03-14T08:42:41;5.86;68.87
64652;HTU21D;51062;45.120;37.660;2023-03-14T08:45:10;5.89;69.02
64652;HTU21D;51062;45.120;37.660;2023-03-14T08:47:37;5.92;68.99
64652;HTU21D;51062;45.120;37.660;2023-03-14T08:50:04;5.92;69.04
64652;HTU21D;51062;45.120;37.660;2023-03-14T08:52:31;5.92;69.04
64652;HTU21D;51062;45.120;37.660;2023-03-14T08:54:58;5.91;69.08
64652;HTU21D;51062;45.120;37.660;2023-03-14T08:57:24;5.91;69.04
64652;HTU21D;51062;45.120;37.660;2023-03-14T08:59:56;5.90;68.97
64652;HTU21D;51062;45.120;37.660;2023-03-14T09:02:24;5.89;68.87
64652;HTU21D;51062;45.120;37.660;2023-03-14T09:04:51;5.90;68.84
64652;HTU21D;51062;45.120;37.660;2023-03-14T09:07:17;5.89;68.77
64652;HTU21D;51062;45.120;37.660;2023-03-14T09:09:44;5.91;68.87
64652;HTU21D;51062;45.120;37.660;2023-03-14T09:12:10;5.93;68.93
64652;HTU21D;51062;45.120;37.660;2023-03-14T09:14:36;5.95;69.03
64652;HTU21D;51062;45.120;37.660;2023-03-14T09:17:03;6.00;69.10
64652;HTU21D;51062;45.120;37.660;2023-03-14T09:19:30;6.05;69.11
64652;HTU21D;51062;45.120;37.660;2023-03-14T09:21:56;6.06;68.96
64652;HTU21D;51062;45.120;37.660;2023-03-14T09:24:22;6.04;69.58
64652;HTU21D;51062;45.120;37.660;2023-03-14T09:26:48;5.94;69.71
64652;HTU21D;51062;45.120;37.660;2023-03-14T09:29:14;5.85;70.28
64652;HTU21D;51062;45.120;37.660;2023-03-14T09:31:40;5.74;70.66
64652;HTU21D;51062;45.120;37.660;2023-03-14T09:34:06;5.67;70.71
64652;HTU21D;51062;45.120;37.660;2023-03-14T09:36:32;5.65;70.81
64652;HTU21D;51062;45.120;37.660;2023-03-14T09:38:58;5.63;71.21
64652;HTU21D;51062;45.120;37.660;2023-03-14T09:41:33;5.59;71.32
64652;HTU21D;51062;45.120;37.660;2023-03-14T09:44:08;5.56;70.93
64652;HTU21D;51062;45.120;37.660;2023-03-14T09:46:38;5.56;70.78
64652;HTU21D;51062;45.120;37.660;2023-03-14T09:49:25;5.57;70.79
64652;HTU21D;51062;45.120;37.660;2023-03-14T09:51:56;5.59;70.64
64652;HTU21D;51062;45.120;37.660;2023-03-14T09:54:47;5.60;70.61
64652;HTU21D;51062;45.120;37.660;2023-03-14T09:57:17;5.63;70.30
64652;HTU21D;51062;45.120;37.660;2023-03-14T09:59:48;5.66;70.16
64652;HTU21D;51062;45.120;37.660;2023-03-14T10:02:23;5.69;70.13
64652;HTU21D;51062;45.120;37.660;2023-03-14T10:04:51;5.72;70.10
64652;HTU21D;51062;45.120;37.660;2023-03-14T10:07:28;5.75;70.13
64652;HTU21D;51062;45.120;37.660;2023-03-14T10:09:55;5.77;70.18
64652;HTU21D;51062;45.120;37.660;2023-03-14T10:12:35;5.80;70.16
64652;HTU21D;51062;45.120;37.660;2023-03-14T10:15:05;5.83;70.09
64652;HTU21D;51062;45.120;37.660;2023-03-14T10:17:39;5.87;70.08
64652;HTU21D;51062;45.120;37.660;2023-03-14T10:20:05;5.92;70.09
64652;HTU21D;51062;45.120;37.660;2023-03-14T10:22:32;5.96;70.10
64652;HTU21D;51062;45.120;37.660;2023-03-14T10:25:05;6.02;70.16
64652;HTU21D;51062;45.120;37.660;2023-03-14T10:27:35;6.08;70.03
64652;HTU21D;51062;45.120;37.660;2023-03-14T10:30:04;6.15;69.97
64652;HTU21D;51062;45.120;37.660;2023-03-14T10:35:20;6.24;69.81
64652;HTU21D;51062;45.120;37.660;2023-03-14T10:38:01;6.24;69.64
64652;HTU21D;51062;45.120;37.660;2023-03-14T10:40:32;6.26;69.72
64652;HTU21D;51062;45.120;37.660;2023-03-14T10:43:00;6.25;69.77
64652;HTU21D;51062;45.120;37.660;2023-03-14T10:48:20;6.27;69.74
64652;HTU21D;51062;45.120;37.660;2023-03-14T10:50:53;6.29;69.74
64652;HTU21D;51062;45.120;37.660;2023-03-14T10:53:20;6.29;69.81
64652;HTU21D;51062;45.120;37.660;2023-03-14T10:55:47;6.33;69.86
64652;HTU21D;51062;45.120;37.660;2023-03-14T11:01:03;6.36;69.89
64652;HTU21D;51062;45.120;37.660;2023-03-14T11:03:33;6.40;69.77
64652;HTU21D;51062;45.120;37.660;2023-03-14T11:06:16;6.45;69.78
64652;HTU21D;51062;45.120;37.660;2023-03-14T11:09:10;6.51;69.62
64652;HTU21D;51062;45.120;37.660;2023-03-14T11:11:39;6.56;69.57
64652;HTU21D;51062;45.120;37.660;2023-03-14T11:16:53;6.68;69.58
64652;HTU21D;51062;45.120;37.660;2023-03-14T11:19:53;6.73;69.48
64652;HTU21D;51062;45.120;37.660;2023-03-14T11:22:40;6.81;69.39
64652;HTU21D;51062;45.120;37.660;2023-03-14T11:25:18;6.82;69.30
64652;HTU21D;51062;45.120;37.660;2023-03-14T11:31:26;6.82;69.37
64652;HTU21D;51062;45.120;37.660;2023-03-14T11:34:08;6.84;69.31
64652;HTU21D;51062;45.120;37.660;2023-03-14T11:36:46;6.85;69.33
64652;HTU21D;51062;45.120;37.660;2023-03-14T11:39:16;6.86;69.36
64652;HTU21D;51062;45.120;37.660;2023-03-14T11:41:46;6.89;69.45
64652;HTU21D;51062;45.120;37.660;2023-03-14T11:44:22;6.91;69.45
64652;HTU21D;51062;45.120;37.660;2023-03-14T11:47:00;6.95;69.46
64652;HTU21D;51062;45.120;37.660;2023-03-14T11:52:03;6.99;69.35
64652;HTU21D;51062;45.120;37.660;2023-03-14T11:54:44;7.02;69.29
64652;HTU21D;51062;45.120;37.660;2023-03-14T11:57:15;7.07;69.25
64652;HTU21D;51062;45.120;37.660;2023-03-14T11:59:52;7.14;69.15
64652;HTU21D;51062;45.120;37.660;2023-03-14T12:10:03;7.44;68.66
64652;HTU21D;51062;45.120;37.660;2023-03-14T12:12:29;7.48;68.60
64652;HTU21D;51062;45.120;37.660;2023-03-14T12:15:02;7.54;68.53
64652;HTU21D;51062;45.120;37.660;2023-03-14T12:17:37;7.59;68.49
64652;HTU21D;51062;45.120;37.660;2023-03-14T12:20:20;7.62;68.43
64652;HTU21D;51062;45.120;37.660;2023-03-14T12:22:50;7.64;68.29
64652;HTU21D;51062;45.120;37.660;2023-03-14T12:25:18;7.63;68.24
64652;HTU21D;51062;45.120;37.660;2023-03-14T12:30:37;7.67;68.14
64652;HTU21D;51062;45.120;37.660;2023-03-14T12:41:11;7.65;68.13
64652;HTU21D;51062;45.120;37.660;2023-03-14T12:43:39;7.67;68.08
64652;HTU21D;51062;45.120;37.660;2023-03-14T12:48:45;7.76;68.07
64652;HTU21D;51062;45.120;37.660;2023-03-14T12:51:17;7.84;68.00
64652;HTU21D;51062;45.120;37.660;2023-03-14T12:56:24;7.96;67.82
64652;HTU21D;51062;45.120;37.660;2023-03-14T12:59:05;8.02;67.78
64652;HTU21D;51062;45.120;37.660;2023-03-14T13:01:35;8.06;67.69
64652;HTU21D;51062;45.120;37.660;2023-03-14T13:04:08;8.11;67.64
64652;HTU21D;51062;45.120;37.660;2023-03-14T13:06:49;8.13;67.54
64652;HTU21D;51062;45.120;37.660;2023-03-14T13:11:54;8.15;67.43
64652;HTU21D;51062;45.120;37.660;2023-03-14T13:14:20;8.17;67.43
64652;HTU21D;51062;45.120;37.660;2023-03-14T13:16:48;8.20;67.46
64652;HTU21D;51062;45.120;37.660;2023-03-14T13:19:18;8.23;67.43
64652;HTU21D;51062;45.120;37.660;2023-03-14T13:21:45;8.30;67.36
64652;HTU21D;51062;45.120;37.660;2023-03-14T13:24:22;8.35;67.30
64652;HTU21D;51062;45.120;37.660;2023-03-14T13:26:49;8.41;67.22
64652;HTU21D;51062;45.120;37.660;2023-03-14T13:29:27;8.51;67.17
64652;HTU21D;51062;45.120;37.660;2023-03-14T13:31:55;8.53;66.81
64652;HTU21D;51062;45.120;37.660;2023-03-14T13:34:26;8.51;66.88
64652;HTU21D;51062;45.120;37.660;2023-03-14T13:36:54;8.48;66.77
64652;HTU21D;51062;45.120;37.660;2023-03-14T13:39:23;8.44;66.76
64652;HTU21D;51062;45.120;37.660;2023-03-14T13:41:55;8.38;66.71
64652;HTU21D;51062;45.120;37.660;2023-03-14T13:46:49;8.31;66.80
64652;HTU21D;51062;45.120;37.660;2023-03-14T13:49:22;8.30;66.81
64652;HTU21D;51062;45.120;37.660;2023-03-14T13:51:50;8.28;66.84
64652;HTU21D;51062;45.120;37.660;2023-03-14T13:54:19;8.28;66.95
64652;HTU21D;51062;45.120;37.660;2023-03-14T13:56:46;8.32;66.94
64652;HTU21D;51062;45.120;37.660;2023-03-14T14:01:48;8.39;66.84
64652;HTU21D;51062;45.120;37.660;2023-03-14T14:04:17;8.43;66.83
64652;HTU21D;51062;45.120;37.660;2023-03-14T14:06:46;8.45;66.77
64652;HTU21D;51062;45.120;37.660;2023-03-14T14:09:36;8.44;66.67
64652;HTU21D;51062;45.120;37.660;2023-03-14T14:12:05;8.43;66.59
64652;HTU21D;51062;45.120;37.660;2023-03-14T14:14:45;8.39;66.61
64652;HTU21D;51062;45.120;37.660;2023-03-14T14:17:19;8.37;66.56
64652;HTU21D;51062;45.120;37.660;2023-03-14T14:19:47;8.36;66.64
64652;HTU21D;51062;45.120;37.660;2023-03-14T14:22:13;8.36;66.65
64652;HTU21D;51062;45.120;37.660;2023-03-14T14:24:39;8.38;66.69
64652;HTU21D;51062;45.120;37.660;2023-03-14T14:27:16;8.43;66.74
64652;HTU21D;51062;45.120;37.660;2023-03-14T14:29:44;8.49;66.69
64652;HTU21D;51062;45.120;37.660;2023-03-14T14:32:13;8.51;66.62
64652;HTU21D;51062;45.120;37.660;2023-03-14T14:34:45;8.53;66.58
64652;HTU21D;51062;45.120;37.660;2023-03-14T14:37:33;8.56;66.53
64652;HTU21D;51062;45.120;37.660;2023-03-14T14:40:29;8.56;66.59
64652;HTU21D;51062;45.120;37.660;2023-03-14T14:43:03;8.55;66.63
64652;HTU21D;51062;45.120;37.660;2023-03-14T14:45:33;8.56;66.62
64652;HTU21D;51062;45.120;37.660;2023-03-14T14:48:06;8.56;66.61
64652;HTU21D;51062;45.120;37.660;2023-03-14T14:53:22;8.62;66.70
64652;HTU21D;51062;45.120;37.660;2023-03-14T14:55:51;8.63;66.69
64652;HTU21D;51062;45.120;37.660;2023-03-14T14:58:20;8.65;66.63
64652;HTU21D;51062;45.120;37.660;2023-03-14T15:01:04;8.63;66.62
64652;HTU21D;51062;45.120;37.660;2023-03-14T15:03:32;8.63;66.58
64652;HTU21D;51062;45.120;37.660;2023-03-14T15:05:59;8.60;66.61
64652;HTU21D;51062;45.120;37.660;2023-03-14T15:08:26;8.58;66.61
64652;HTU21D;51062;45.120;37.660;2023-03-14T15:10:54;8.55;66.66
64652;HTU21D;51062;45.120;37.660;2023-03-14T15:13:20;8.50;66.70
64652;HTU21D;51062;45.120;37.660;2023-03-14T15:15:47;8.45;66.75
64652;HTU21D;51062;45.120;37.660;2023-03-14T15:18:16;8.37;66.69
64652;HTU21D;51062;45.120;37.660;2023-03-14T15:20:44;8.31;66.75
64652;HTU21D;51062;45.120;37.660;2023-03-14T15:23:12;8.24;66.97
64652;HTU21D;51062;45.120;37.660;2023-03-14T15:25:39;8.20;67.09
64652;HTU21D;51062;45.120;37.660;2023-03-14T15:28:28;8.15;67.32
64652;HTU21D;51062;45.120;37.660;2023-03-14T15:30:56;8.13;67.35
64652;HTU21D;51062;45.120;37.660;2023-03-14T15:33:23;8.09;67.25
64652;HTU21D;51062;45.120;37.660;2023-03-14T15:35:50;8.04;67.35
64652;HTU21D;51062;45.120;37.660;2023-03-14T15:38:21;8.01;67.43
64652;HTU21D;51062;45.120;37.660;2023-03-14T15:40:51;7.97;67.51
64652;HTU21D;51062;45.120;37.660;2023-03-14T15:43:18;7.92;67.62
64652;HTU21D;51062;45.120;37.660;2023-03-14T15:45:45;7.87;67.72
64652;HTU21D;51062;45.120;37.660;2023-03-14T15:48:14;7.84;67.66
64652;HTU21D;51062;45.120;37.660;2023-03-14T15:50:42;7.79;67.69
64652;HTU21D;51062;45.120;37.660;2023-03-14T15:53:08;7.75;67.82
64652;HTU21D;51062;45.120;37.660;2023-03-14T15:55:34;7.72;67.88
64652;HTU21D;51062;45.120;37.660;2023-03-14T15:58:00;7.69;67.94
64652;HTU21D;51062;45.120;37.660;2023-03-14T16:00:29;7.68;67.97
64652;HTU21D;51062;45.120;37.660;2023-03-14T16:02:55;7.67;68.09
64652;HTU21D;51062;45.120;37.660;2023-03-14T16:05:21;7.67;68.10
64652;HTU21D;51062;45.120;37.660;2023-03-14T16:07:48;7.65;68.00
64652;HTU21D;51062;45.120;37.660;2023-03-14T16:10:15;7.63;67.89
64652;HTU21D;51062;45.120;37.660;2023-03-14T16:12:42;7.61;67.81
64652;HTU21D;51062;45.120;37.660;2023-03-14T16:15:09;7.57;67.75
64652;HTU21D;51062;45.120;37.660;2023-03-14T16:17:35;7.57;67.75
64652;HTU21D;51062;45.120;37.660;2023-03-14T16:20:04;7.57;67.80
64652;HTU21D;51062;45.120;37.660;2023-03-14T16:22:30;7.60;67.78
64652;HTU21D;51062;45.120;37.660;2023-03-14T16:25:04;7.61;67.75
64652;HTU21D;51062;45.120;37.660;2023-03-14T16:27:31;7.62;67.75
64652;HTU21D;51062;45.120;37.660;2023-03-14T16:29:58;7.64;67.70
64652;HTU21D;51062;45.120;37.660;2023-03-14T16:32:25;7.64;67.66
64652;HTU21D;51062;45.120;37.660;2023-03-14T16:34:51;7.64;67.62
64652;HTU21D;51062;45.120;37.660;2023-03-14T16:37:17;7.64;67.58